Cedar Arrow — C6RZ7 — position and weather

sailwx.info

Track history (hours):
 
Tides and Currents Weather Stations Pressure Air Temp Water Temp Dewpoint Dewpoint Depression Visibility Wind Speed Wind Dir Waves Ship Positions

Cedar Arrow

Last reported at 2017-Dec-28 09:17 UTC. Time now 2018-Jan-20 01:46 UTC.
Position S 24°53' W 046°44'.
Warning: this ship's position is 22 days out of date.

Length 190 m; draft 6.9 m.

Type: Cargo ship. MMSI: 311259000.

Date/timePositionNaut miles runAvg speedWind from/ knotsBaromVisibWave heightAir tempDewpointWater temp
2017-Dec-28 09:17S 24°53' W 046°44'413.5
2017-Dec-28 09:00S 24°50' W 046°43'713.6
2017-Dec-28 08:30S 24°43' W 046°40'713.6
2017-Dec-28 08:00S 24°37' W 046°37'713.6
2017-Dec-28 07:31S 24°31' W 046°34'713.7
2017-Dec-28 07:01S 24°24' W 046°31'713.8
2017-Dec-28 06:30S 24°18' W 046°28'713.8
2017-Dec-28 06:00S 24°12' W 046°25'713.6
2017-Dec-28 05:30S 24°05' W 046°22'611.3
2017-Dec-28 05:00S 24°00' W 046°20'3 5.9
2017-Dec-28 04:30S 23°58' W 046°18'2 0.1
2017-Dec-27 11:16S 23°56' W 046°19'0 0.0
2017-Dec-27 10:58S 23°56' W 046°19'0 0.0
2017-Dec-27 10:28S 23°56' W 046°19'0 0.0
2017-Dec-27 09:40S 23°56' W 046°19'0 0.0
2017-Dec-27 09:16S 23°56' W 046°19'0 0.0
2017-Dec-27 08:46S 23°56' W 046°19'0 0.0
2017-Dec-27 08:28S 23°56' W 046°19'0 0.0
2017-Dec-27 07:46S 23°56' W 046°19'0 0.0
2017-Dec-27 07:04S 23°56' W 046°19'0 0.0
2017-Dec-27 06:52S 23°56' W 046°19'0 0.0
2017-Dec-27 05:46S 23°56' W 046°19'0 0.0
2017-Dec-27 05:16S 23°56' W 046°19'  
2017-Dec-22 14:45S 23°56' W 046°19'1 5.5
2017-Dec-22 14:30S 23°58' W 046°18'3 5.8
2017-Dec-22 14:00S 23°60' W 046°20'2 4.7
2017-Dec-22 13:30S 24°02' W 046°21'4 7.3
2017-Dec-22 13:00S 24°04' W 046°17'1 2.7
2017-Dec-22 12:30S 24°04' W 046°16'1 1.1
2017-Dec-22 12:01S 24°04' W 046°17'2 3.0
2017-Dec-22 11:30S 24°04' W 046°18'1 2.8
2017-Dec-22 11:00S 24°05' W 046°17'3 6.8
2017-Dec-22 10:30S 24°05' W 046°13'510.3
2017-Dec-22 10:01S 24°04' W 046°08'612.7
2017-Dec-22 09:31S 24°03' W 046°01'612.7
2017-Dec-22 09:01S 24°01' W 045°54'25513.4
2017-Dec-21 14:00S 23°00' W 041°24'5714.3 050 / 281014.910.8 25.521.8
2017-Dec-21 10:00S 22°18' W 040°42'29214.6 040 / 241015.1 5.4 26.022.324.5
2017-Dec-20 14:00S 18°12' W 037°54'6613.3 140 / 121018.010.8 26.521.3
2017-Dec-20 09:00S 17°12' W 037°24'10615.2 150 / 121016.610.8 26.020.726.0
2017-Dec-20 02:00S 15°36' W 036°36'6713.3 140 / 131017.110.8 26.021.5
2017-Dec-19 21:00S 14°36' W 036°06'17114.3 130 / 151016.4 5.4 26.023.126.7
2017-Dec-19 09:00S 12°00' W 034°54'11013.8 050 / 121016.810.8 26.520.526.7
2017-Dec-19 01:00S 10°18' W 034°12'6516.2 100 / 131016.610.8 27.022.6
2017-Dec-18 21:00S 09°24' W 033°36'   120 / 121014.610.8 27.021.027.1
Track history (hours):
 
Tides and Currents Weather Stations Pressure Air Temp Water Temp Dewpoint Dewpoint Depression Visibility Wind Speed Wind Dir Waves Ship Positions

Cedar Arrow

Last reported at 2017-Dec-28 09:17 UTC. Time now 2018-Jan-20 01:46 UTC.
Position S 24°53' W 046°44'.
Warning: this ship's position is 22 days out of date.

Length 190 m; draft 6.9 m.

Type: Cargo ship. MMSI: 311259000.

Date/timePositionNaut miles runAvg speedWind from/ knotsBaromVisibWave heightAir tempDewpointWater temp
2017-Dec-28 09:17S 24°53' W 046°44'413.5
2017-Dec-28 09:00S 24°50' W 046°43'713.6
2017-Dec-28 08:30S 24°43' W 046°40'713.6
2017-Dec-28 08:00S 24°37' W 046°37'713.6
2017-Dec-28 07:31S 24°31' W 046°34'713.7
2017-Dec-28 07:01S 24°24' W 046°31'713.8
2017-Dec-28 06:30S 24°18' W 046°28'713.8
2017-Dec-28 06:00S 24°12' W 046°25'713.6
2017-Dec-28 05:30S 24°05' W 046°22'611.3
2017-Dec-28 05:00S 24°00' W 046°20'3 5.9
2017-Dec-28 04:30S 23°58' W 046°18'2 0.1
2017-Dec-27 11:16S 23°56' W 046°19'0 0.0
2017-Dec-27 10:58S 23°56' W 046°19'0 0.0
2017-Dec-27 10:28S 23°56' W 046°19'0 0.0
2017-Dec-27 09:40S 23°56' W 046°19'0 0.0
2017-Dec-27 09:16S 23°56' W 046°19'0 0.0
2017-Dec-27 08:46S 23°56' W 046°19'0 0.0
2017-Dec-27 08:28S 23°56' W 046°19'0 0.0
2017-Dec-27 07:46S 23°56' W 046°19'0 0.0
2017-Dec-27 07:04S 23°56' W 046°19'0 0.0
2017-Dec-27 06:52S 23°56' W 046°19'0 0.0
2017-Dec-27 05:46S 23°56' W 046°19'0 0.0
2017-Dec-27 05:16S 23°56' W 046°19'  
2017-Dec-22 14:45S 23°56' W 046°19'1 5.5
2017-Dec-22 14:30S 23°58' W 046°18'3 5.8
2017-Dec-22 14:00S 23°60' W 046°20'2 4.7
2017-Dec-22 13:30S 24°02' W 046°21'4 7.3
2017-Dec-22 13:00S 24°04' W 046°17'1 2.7
2017-Dec-22 12:30S 24°04' W 046°16'1 1.1
2017-Dec-22 12:01S 24°04' W 046°17'2 3.0
2017-Dec-22 11:30S 24°04' W 046°18'1 2.8
2017-Dec-22 11:00S 24°05' W 046°17'3 6.8
2017-Dec-22 10:30S 24°05' W 046°13'510.3
2017-Dec-22 10:01S 24°04' W 046°08'612.7
2017-Dec-22 09:31S 24°03' W 046°01'612.7
2017-Dec-22 09:01S 24°01' W 045°54'25513.4
2017-Dec-21 14:00S 23°00' W 041°24'5714.3 050 / 281014.910.8 25.521.8
2017-Dec-21 10:00S 22°18' W 040°42'29214.6 040 / 241015.1 5.4 26.022.324.5
2017-Dec-20 14:00S 18°12' W 037°54'6613.3 140 / 121018.010.8 26.521.3
2017-Dec-20 09:00S 17°12' W 037°24'10615.2 150 / 121016.610.8 26.020.726.0
2017-Dec-20 02:00S 15°36' W 036°36'6713.3 140 / 131017.110.8 26.021.5
2017-Dec-19 21:00S 14°36' W 036°06'17114.3 130 / 151016.4 5.4 26.023.126.7
2017-Dec-19 09:00S 12°00' W 034°54'11013.8 050 / 121016.810.8 26.520.526.7
2017-Dec-19 01:00S 10°18' W 034°12'6516.2 100 / 131016.610.8 27.022.6
2017-Dec-18 21:00S 09°24' W 033°36'   120 / 121014.610.8 27.021.027.1

Dump ship's entire track history